sensor_id;sensor_type;location;lat;lon;timestamp;P1;durP1;ratioP1;P2;durP2;ratioP2
8159;SDS011;27404;52.398;9.646;2023-04-24T00:01:40;1.97;;;0.80;;
8159;SDS011;27404;52.398;9.646;2023-04-24T00:04:05;1.10;;;0.70;;
8159;SDS011;27404;52.398;9.646;2023-04-24T00:06:32;0.90;;;0.70;;
8159;SDS011;27404;52.398;9.646;2023-04-24T00:09:01;1.30;;;0.80;;
8159;SDS011;27404;52.398;9.646;2023-04-24T00:11:28;1.40;;;0.83;;
8159;SDS011;27404;52.398;9.646;2023-04-24T00:13:54;1.20;;;0.80;;
8159;SDS011;27404;52.398;9.646;2023-04-24T00:16:19;2.10;;;0.80;;
8159;SDS011;27404;52.398;9.646;2023-04-24T00:18:45;3.17;;;0.90;;
8159;SDS011;27404;52.398;9.646;2023-04-24T00:21:12;1.73;;;0.90;;
8159;SDS011;27404;52.398;9.646;2023-04-24T00:23:38;2.33;;;0.90;;
8159;SDS011;27404;52.398;9.646;2023-04-24T00:26:04;2.23;;;0.80;;
8159;SDS011;27404;52.398;9.646;2023-04-24T00:28:29;0.77;;;0.70;;
8159;SDS011;27404;52.398;9.646;2023-04-24T00:30:55;1.20;;;0.90;;
8159;SDS011;27404;52.398;9.646;2023-04-24T00:33:20;2.37;;;0.90;;
8159;SDS011;27404;52.398;9.646;2023-04-24T00:35:46;1.80;;;0.63;;
8159;SDS011;27404;52.398;9.646;2023-04-24T00:38:11;2.30;;;0.90;;
8159;SDS011;27404;52.398;9.646;2023-04-24T00:40:36;1.33;;;1.00;;
8159;SDS011;27404;52.398;9.646;2023-04-24T00:43:02;1.30;;;0.90;;
8159;SDS011;27404;52.398;9.646;2023-04-24T00:45:27;1.70;;;1.00;;
8159;SDS011;27404;52.398;9.646;2023-04-24T00:47:53;3.10;;;1.00;;
8159;SDS011;27404;52.398;9.646;2023-04-24T00:50:18;1.70;;;0.90;;
8159;SDS011;27404;52.398;9.646;2023-04-24T00:52:46;1.23;;;0.80;;
8159;SDS011;27404;52.398;9.646;2023-04-24T00:55:12;1.03;;;0.93;;
8159;SDS011;27404;52.398;9.646;2023-04-24T00:57:37;2.37;;;1.10;;
8159;SDS011;27404;52.398;9.646;2023-04-24T01:00:04;3.10;;;1.00;;
8159;SDS011;27404;52.398;9.646;2023-04-24T01:02:32;2.43;;;1.00;;
8159;SDS011;27404;52.398;9.646;2023-04-24T01:05:00;1.10;;;0.70;;
8159;SDS011;27404;52.398;9.646;2023-04-24T01:07:26;1.40;;;1.03;;
8159;SDS011;27404;52.398;9.646;2023-04-24T01:09:55;2.30;;;1.10;;
8159;SDS011;27404;52.398;9.646;2023-04-24T01:12:21;2.70;;;1.10;;
8159;SDS011;27404;52.398;9.646;2023-04-24T01:14:46;1.37;;;1.03;;
8159;SDS011;27404;52.398;9.646;2023-04-24T01:17:12;1.40;;;0.87;;
8159;SDS011;27404;52.398;9.646;2023-04-24T01:19:37;1.47;;;0.90;;
8159;SDS011;27404;52.398;9.646;2023-04-24T01:22:07;1.40;;;0.90;;
8159;SDS011;27404;52.398;9.646;2023-04-24T01:24:37;1.37;;;0.87;;
8159;SDS011;27404;52.398;9.646;2023-04-24T01:27:03;1.27;;;0.90;;
8159;SDS011;27404;52.398;9.646;2023-04-24T01:29:29;2.00;;;0.93;;
8159;SDS011;27404;52.398;9.646;2023-04-24T01:31:54;1.60;;;1.17;;
8159;SDS011;27404;52.398;9.646;2023-04-24T01:34:20;1.63;;;1.00;;
8159;SDS011;27404;52.398;9.646;2023-04-24T01:36:46;1.10;;;0.90;;
8159;SDS011;27404;52.398;9.646;2023-04-24T01:39:13;2.20;;;0.83;;
8159;SDS011;27404;52.398;9.646;2023-04-24T01:41:38;1.50;;;1.10;;
8159;SDS011;27404;52.398;9.646;2023-04-24T01:44:04;0.90;;;0.80;;
8159;SDS011;27404;52.398;9.646;2023-04-24T01:46:29;3.60;;;1.00;;
8159;SDS011;27404;52.398;9.646;2023-04-24T01:48:56;1.63;;;1.07;;
8159;SDS011;27404;52.398;9.646;2023-04-24T01:51:25;1.10;;;0.80;;
8159;SDS011;27404;52.398;9.646;2023-04-24T01:53:51;1.90;;;0.97;;
8159;SDS011;27404;52.398;9.646;2023-04-24T01:56:16;1.20;;;1.00;;
8159;SDS011;27404;52.398;9.646;2023-04-24T01:58:42;1.97;;;0.97;;
8159;SDS011;27404;52.398;9.646;2023-04-24T02:01:08;2.33;;;0.90;;
8159;SDS011;27404;52.398;9.646;2023-04-24T02:03:33;1.93;;;0.90;;
8159;SDS011;27404;52.398;9.646;2023-04-24T02:05:59;1.53;;;0.90;;
8159;SDS011;27404;52.398;9.646;2023-04-24T02:08:24;0.90;;;0.70;;
8159;SDS011;27404;52.398;9.646;2023-04-24T02:10:50;3.23;;;0.93;;
8159;SDS011;27404;52.398;9.646;2023-04-24T02:13:16;1.73;;;0.70;;
8159;SDS011;27404;52.398;9.646;2023-04-24T02:15:41;3.60;;;0.90;;
8159;SDS011;27404;52.398;9.646;2023-04-24T02:18:06;1.57;;;0.90;;
8159;SDS011;27404;52.398;9.646;2023-04-24T02:20:32;1.57;;;0.90;;
8159;SDS011;27404;52.398;9.646;2023-04-24T02:23:00;1.20;;;0.80;;
8159;SDS011;27404;52.398;9.646;2023-04-24T02:25:26;1.57;;;0.83;;
8159;SDS011;27404;52.398;9.646;2023-04-24T02:27:51;0.90;;;0.80;;
8159;SDS011;27404;52.398;9.646;2023-04-24T02:30:16;1.47;;;0.80;;
8159;SDS011;27404;52.398;9.646;2023-04-24T02:32:42;1.53;;;0.80;;
8159;SDS011;27404;52.398;9.646;2023-04-24T02:35:07;1.13;;;0.70;;
8159;SDS011;27404;52.398;9.646;2023-04-24T02:37:33;1.13;;;0.70;;
8159;SDS011;27404;52.398;9.646;2023-04-24T02:39:59;1.23;;;0.80;;
8159;SDS011;27404;52.398;9.646;2023-04-24T02:42:24;0.93;;;0.83;;
8159;SDS011;27404;52.398;9.646;2023-04-24T02:44:50;1.03;;;0.70;;
8159;SDS011;27404;52.398;9.646;2023-04-24T02:47:16;2.43;;;0.90;;
8159;SDS011;27404;52.398;9.646;2023-04-24T02:49:41;0.83;;;0.60;;
8159;SDS011;27404;52.398;9.646;2023-04-24T02:52:07;1.10;;;0.80;;
8159;SDS011;27404;52.398;9.646;2023-04-24T02:54:32;1.27;;;0.70;;
8159;SDS011;27404;52.398;9.646;2023-04-24T02:56:58;1.20;;;0.90;;
8159;SDS011;27404;52.398;9.646;2023-04-24T02:59:23;1.50;;;0.77;;
8159;SDS011;27404;52.398;9.646;2023-04-24T03:01:49;1.77;;;1.17;;
8159;SDS011;27404;52.398;9.646;2023-04-24T03:04:14;1.83;;;0.73;;
8159;SDS011;27404;52.398;9.646;2023-04-24T03:06:40;0.80;;;0.70;;
8159;SDS011;27404;52.398;9.646;2023-04-24T03:09:06;2.10;;;0.90;;
8159;SDS011;27404;52.398;9.646;2023-04-24T03:11:31;1.27;;;0.90;;
8159;SDS011;27404;52.398;9.646;2023-04-24T03:13:56;1.13;;;0.63;;
8159;SDS011;27404;52.398;9.646;2023-04-24T03:16:22;1.70;;;0.87;;
8159;SDS011;27404;52.398;9.646;2023-04-24T03:18:47;1.70;;;0.87;;
8159;SDS011;27404;52.398;9.646;2023-04-24T03:21:13;1.30;;;0.80;;
8159;SDS011;27404;52.398;9.646;2023-04-24T03:23:38;1.33;;;0.80;;
8159;SDS011;27404;52.398;9.646;2023-04-24T03:26:03;1.07;;;0.80;;
8159;SDS011;27404;52.398;9.646;2023-04-24T03:28:29;2.50;;;0.90;;
8159;SDS011;27404;52.398;9.646;2023-04-24T03:30:54;1.60;;;0.90;;
8159;SDS011;27404;52.398;9.646;2023-04-24T03:33:20;2.13;;;0.80;;
8159;SDS011;27404;52.398;9.646;2023-04-24T03:35:45;1.00;;;0.80;;
8159;SDS011;27404;52.398;9.646;2023-04-24T03:38:11;1.77;;;0.83;;
8159;SDS011;27404;52.398;9.646;2023-04-24T03:40:36;3.10;;;0.87;;
8159;SDS011;27404;52.398;9.646;2023-04-24T03:43:01;1.63;;;0.90;;
8159;SDS011;27404;52.398;9.646;2023-04-24T03:45:27;1.50;;;0.90;;
8159;SDS011;27404;52.398;9.646;2023-04-24T03:47:52;1.20;;;0.83;;
8159;SDS011;27404;52.398;9.646;2023-04-24T03:50:18;1.90;;;1.10;;
8159;SDS011;27404;52.398;9.646;2023-04-24T03:52:43;2.40;;;1.03;;
8159;SDS011;27404;52.398;9.646;2023-04-24T03:55:09;0.70;;;0.60;;
8159;SDS011;27404;52.398;9.646;2023-04-24T03:57:37;3.07;;;0.80;;
8159;SDS011;27404;52.398;9.646;2023-04-24T04:00:04;0.90;;;0.80;;
8159;SDS011;27404;52.398;9.646;2023-04-24T04:02:30;1.50;;;1.03;;
8159;SDS011;27404;52.398;9.646;2023-04-24T04:04:55;1.60;;;0.90;;
8159;SDS011;27404;52.398;9.646;2023-04-24T04:07:21;0.90;;;0.80;;
8159;SDS011;27404;52.398;9.646;2023-04-24T04:09:46;1.07;;;0.70;;
8159;SDS011;27404;52.398;9.646;2023-04-24T04:12:11;1.40;;;0.90;;
8159;SDS011;27404;52.398;9.646;2023-04-24T04:14:37;1.87;;;0.90;;
8159;SDS011;27404;52.398;9.646;2023-04-24T04:17:03;3.80;;;0.90;;
8159;SDS011;27404;52.398;9.646;2023-04-24T04:19:28;2.00;;;0.97;;
8159;SDS011;27404;52.398;9.646;2023-04-24T04:21:54;1.10;;;1.00;;
8159;SDS011;27404;52.398;9.646;2023-04-24T04:24:21;1.40;;;0.70;;
8159;SDS011;27404;52.398;9.646;2023-04-24T04:26:47;1.43;;;0.80;;
8159;SDS011;27404;52.398;9.646;2023-04-24T04:29:16;2.30;;;1.17;;
8159;SDS011;27404;52.398;9.646;2023-04-24T04:31:42;1.20;;;0.77;;
8159;SDS011;27404;52.398;9.646;2023-04-24T04:34:08;0.80;;;0.60;;
8159;SDS011;27404;52.398;9.646;2023-04-24T04:36:34;1.83;;;0.63;;
8159;SDS011;27404;52.398;9.646;2023-04-24T04:39:02;1.00;;;0.60;;
8159;SDS011;27404;52.398;9.646;2023-04-24T04:41:28;2.37;;;0.90;;
8159;SDS011;27404;52.398;9.646;2023-04-24T04:43:55;1.60;;;0.80;;
8159;SDS011;27404;52.398;9.646;2023-04-24T04:46:23;0.40;;;0.40;;
8159;SDS011;27404;52.398;9.646;2023-04-24T04:48:51;0.90;;;0.60;;
8159;SDS011;27404;52.398;9.646;2023-04-24T04:51:17;1.20;;;0.70;;
8159;SDS011;27404;52.398;9.646;2023-04-24T04:53:42;1.40;;;0.83;;
8159;SDS011;27404;52.398;9.646;2023-04-24T04:56:08;1.20;;;0.80;;
8159;SDS011;27404;52.398;9.646;2023-04-24T04:58:33;1.00;;;0.70;;
8159;SDS011;27404;52.398;9.646;2023-04-24T05:00:58;1.30;;;0.80;;
8159;SDS011;27404;52.398;9.646;2023-04-24T05:03:24;1.97;;;0.80;;
8159;SDS011;27404;52.398;9.646;2023-04-24T05:05:49;1.50;;;0.80;;
8159;SDS011;27404;52.398;9.646;2023-04-24T05:08:15;1.20;;;0.70;;
8159;SDS011;27404;52.398;9.646;2023-04-24T05:10:40;1.73;;;0.80;;
8159;SDS011;27404;52.398;9.646;2023-04-24T05:13:06;1.30;;;0.90;;
8159;SDS011;27404;52.398;9.646;2023-04-24T05:15:31;1.63;;;0.90;;
8159;SDS011;27404;52.398;9.646;2023-04-24T05:17:57;4.40;;;0.70;;
8159;SDS011;27404;52.398;9.646;2023-04-24T05:20:22;1.63;;;0.70;;
8159;SDS011;27404;52.398;9.646;2023-04-24T05:22:48;3.20;;;0.80;;
8159;SDS011;27404;52.398;9.646;2023-04-24T05:25:13;1.47;;;0.80;;
8159;SDS011;27404;52.398;9.646;2023-04-24T05:27:39;1.20;;;0.70;;
8159;SDS011;27404;52.398;9.646;2023-04-24T05:30:05;1.03;;;0.80;;
8159;SDS011;27404;52.398;9.646;2023-04-24T05:32:31;1.00;;;0.87;;
8159;SDS011;27404;52.398;9.646;2023-04-24T05:34:56;1.27;;;0.70;;
8159;SDS011;27404;52.398;9.646;2023-04-24T05:37:22;2.13;;;0.60;;
8159;SDS011;27404;52.398;9.646;2023-04-24T05:39:47;0.93;;;0.67;;
8159;SDS011;27404;52.398;9.646;2023-04-24T05:42:13;1.73;;;0.60;;
8159;SDS011;27404;52.398;9.646;2023-04-24T05:44:38;2.73;;;1.00;;
8159;SDS011;27404;52.398;9.646;2023-04-24T05:47:03;1.13;;;0.77;;
8159;SDS011;27404;52.398;9.646;2023-04-24T05:49:29;1.23;;;1.00;;
8159;SDS011;27404;52.398;9.646;2023-04-24T05:51:54;1.20;;;0.83;;
8159;SDS011;27404;52.398;9.646;2023-04-24T05:54:20;1.23;;;0.97;;
8159;SDS011;27404;52.398;9.646;2023-04-24T05:56:45;2.80;;;1.17;;
8159;SDS011;27404;52.398;9.646;2023-04-24T05:59:11;2.23;;;0.70;;
8159;SDS011;27404;52.398;9.646;2023-04-24T06:01:37;1.20;;;1.00;;
8159;SDS011;27404;52.398;9.646;2023-04-24T06:04:03;1.50;;;1.00;;
8159;SDS011;27404;52.398;9.646;2023-04-24T06:06:29;2.90;;;1.30;;
8159;SDS011;27404;52.398;9.646;2023-04-24T06:08:54;1.57;;;1.10;;
8159;SDS011;27404;52.398;9.646;2023-04-24T06:11:20;1.90;;;1.30;;
8159;SDS011;27404;52.398;9.646;2023-04-24T06:13:46;4.07;;;1.33;;
8159;SDS011;27404;52.398;9.646;2023-04-24T06:16:11;1.43;;;1.20;;
8159;SDS011;27404;52.398;9.646;2023-04-24T06:18:37;1.50;;;1.30;;
8159;SDS011;27404;52.398;9.646;2023-04-24T06:21:02;2.43;;;1.40;;
8159;SDS011;27404;52.398;9.646;2023-04-24T06:23:28;2.20;;;1.50;;
8159;SDS011;27404;52.398;9.646;2023-04-24T06:25:54;3.43;;;1.43;;
8159;SDS011;27404;52.398;9.646;2023-04-24T06:28:19;2.30;;;1.40;;
8159;SDS011;27404;52.398;9.646;2023-04-24T06:30:45;3.80;;;1.90;;
8159;SDS011;27404;52.398;9.646;2023-04-24T06:33:10;2.43;;;2.00;;
8159;SDS011;27404;52.398;9.646;2023-04-24T06:35:36;3.47;;;2.13;;
8159;SDS011;27404;52.398;9.646;2023-04-24T06:38:03;3.20;;;2.47;;
8159;SDS011;27404;52.398;9.646;2023-04-24T06:40:28;4.50;;;2.40;;
8159;SDS011;27404;52.398;9.646;2023-04-24T06:42:54;3.37;;;2.57;;
8159;SDS011;27404;52.398;9.646;2023-04-24T06:45:19;3.57;;;2.50;;
8159;SDS011;27404;52.398;9.646;2023-04-24T06:47:45;3.57;;;2.47;;
8159;SDS011;27404;52.398;9.646;2023-04-24T06:50:10;3.53;;;2.77;;
8159;SDS011;27404;52.398;9.646;2023-04-24T06:52:36;4.43;;;3.00;;
8159;SDS011;27404;52.398;9.646;2023-04-24T06:55:02;4.80;;;3.07;;
8159;SDS011;27404;52.398;9.646;2023-04-24T06:57:28;4.00;;;2.93;;
8159;SDS011;27404;52.398;9.646;2023-04-24T06:59:54;4.43;;;3.17;;
8159;SDS011;27404;52.398;9.646;2023-04-24T07:02:20;3.77;;;2.97;;
8159;SDS011;27404;52.398;9.646;2023-04-24T07:04:46;6.10;;;3.20;;
8159;SDS011;27404;52.398;9.646;2023-04-24T07:07:12;4.30;;;3.30;;
8159;SDS011;27404;52.398;9.646;2023-04-24T07:09:39;4.77;;;3.37;;
8159;SDS011;27404;52.398;9.646;2023-04-24T07:12:07;4.57;;;3.50;;
8159;SDS011;27404;52.398;9.646;2023-04-24T07:14:36;3.80;;;3.30;;
8159;SDS011;27404;52.398;9.646;2023-04-24T07:17:03;6.97;;;4.03;;
8159;SDS011;27404;52.398;9.646;2023-04-24T07:19:31;5.77;;;3.77;;
8159;SDS011;27404;52.398;9.646;2023-04-24T07:21:58;4.87;;;4.00;;
8159;SDS011;27404;52.398;9.646;2023-04-24T07:24:24;4.97;;;3.80;;
8159;SDS011;27404;52.398;9.646;2023-04-24T07:26:51;4.73;;;3.93;;
8159;SDS011;27404;52.398;9.646;2023-04-24T07:29:17;5.87;;;4.27;;
8159;SDS011;27404;52.398;9.646;2023-04-24T07:31:43;6.13;;;4.47;;
8159;SDS011;27404;52.398;9.646;2023-04-24T07:34:08;8.93;;;4.33;;
8159;SDS011;27404;52.398;9.646;2023-04-24T07:36:34;5.70;;;4.27;;
8159;SDS011;27404;52.398;9.646;2023-04-24T07:39:00;6.73;;;4.30;;
8159;SDS011;27404;52.398;9.646;2023-04-24T07:41:25;5.93;;;4.20;;
8159;SDS011;27404;52.398;9.646;2023-04-24T07:43:52;7.07;;;5.00;;
8159;SDS011;27404;52.398;9.646;2023-04-24T07:46:18;8.20;;;5.13;;
8159;SDS011;27404;52.398;9.646;2023-04-24T07:48:44;7.70;;;5.80;;
8159;SDS011;27404;52.398;9.646;2023-04-24T07:51:11;7.57;;;6.13;;
8159;SDS011;27404;52.398;9.646;2023-04-24T07:53:38;8.17;;;5.50;;
8159;SDS011;27404;52.398;9.646;2023-04-24T07:56:05;7.23;;;6.00;;
8159;SDS011;27404;52.398;9.646;2023-04-24T07:58:30;8.33;;;5.73;;
8159;SDS011;27404;52.398;9.646;2023-04-24T08:00:56;9.40;;;6.37;;
8159;SDS011;27404;52.398;9.646;2023-04-24T08:03:21;9.07;;;6.10;;
8159;SDS011;27404;52.398;9.646;2023-04-24T08:05:47;9.97;;;6.13;;
8159;SDS011;27404;52.398;9.646;2023-04-24T08:08:12;7.43;;;5.60;;
8159;SDS011;27404;52.398;9.646;2023-04-24T08:10:38;8.20;;;6.17;;
8159;SDS011;27404;52.398;9.646;2023-04-24T08:13:04;7.90;;;6.40;;
8159;SDS011;27404;52.398;9.646;2023-04-24T08:15:30;8.67;;;6.43;;
8159;SDS011;27404;52.398;9.646;2023-04-24T08:17:56;7.37;;;6.07;;
8159;SDS011;27404;52.398;9.646;2023-04-24T08:20:22;8.13;;;6.13;;
8159;SDS011;27404;52.398;9.646;2023-04-24T08:22:47;10.60;;;6.37;;
8159;SDS011;27404;52.398;9.646;2023-04-24T08:25:13;8.37;;;6.77;;
8159;SDS011;27404;52.398;9.646;2023-04-24T08:27:39;8.80;;;6.07;;
8159;SDS011;27404;52.398;9.646;2023-04-24T08:30:05;8.47;;;6.40;;
8159;SDS011;27404;52.398;9.646;2023-04-24T08:32:31;8.30;;;6.43;;
8159;SDS011;27404;52.398;9.646;2023-04-24T08:34:57;8.00;;;6.27;;
8159;SDS011;27404;52.398;9.646;2023-04-24T08:37:23;7.33;;;5.73;;
8159;SDS011;27404;52.398;9.646;2023-04-24T08:39:50;7.20;;;5.70;;
8159;SDS011;27404;52.398;9.646;2023-04-24T08:42:17;7.90;;;5.57;;
8159;SDS011;27404;52.398;9.646;2023-04-24T08:44:43;9.27;;;5.80;;
8159;SDS011;27404;52.398;9.646;2023-04-24T08:47:09;7.10;;;5.07;;
8159;SDS011;27404;52.398;9.646;2023-04-24T08:49:36;7.90;;;5.43;;
8159;SDS011;27404;52.398;9.646;2023-04-24T08:52:02;6.20;;;5.30;;
8159;SDS011;27404;52.398;9.646;2023-04-24T08:54:28;6.93;;;5.20;;
8159;SDS011;27404;52.398;9.646;2023-04-24T08:56:56;9.60;;;5.70;;
8159;SDS011;27404;52.398;9.646;2023-04-24T08:59:27;6.30;;;5.37;;
8159;SDS011;27404;52.398;9.646;2023-04-24T09:01:53;5.73;;;4.80;;
8159;SDS011;27404;52.398;9.646;2023-04-24T09:04:20;5.77;;;4.67;;
8159;SDS011;27404;52.398;9.646;2023-04-24T09:06:51;6.87;;;4.70;;
8159;SDS011;27404;52.398;9.646;2023-04-24T09:09:20;8.07;;;4.77;;
8159;SDS011;27404;52.398;9.646;2023-04-24T09:11:48;6.37;;;4.40;;
8159;SDS011;27404;52.398;9.646;2023-04-24T09:14:15;6.00;;;4.47;;
8159;SDS011;27404;52.398;9.646;2023-04-24T09:16:41;5.10;;;4.00;;
8159;SDS011;27404;52.398;9.646;2023-04-24T09:19:07;6.37;;;4.23;;
8159;SDS011;27404;52.398;9.646;2023-04-24T09:21:33;8.27;;;4.27;;
8159;SDS011;27404;52.398;9.646;2023-04-24T09:24:03;5.53;;;3.57;;
8159;SDS011;27404;52.398;9.646;2023-04-24T09:26:31;6.00;;;3.73;;
8159;SDS011;27404;52.398;9.646;2023-04-24T09:29:00;4.60;;;3.53;;
8159;SDS011;27404;52.398;9.646;2023-04-24T09:31:27;5.53;;;3.30;;
8159;SDS011;27404;52.398;9.646;2023-04-24T09:33:57;4.43;;;3.40;;
8159;SDS011;27404;52.398;9.646;2023-04-24T09:36:31;4.57;;;3.57;;
8159;SDS011;27404;52.398;9.646;2023-04-24T09:39:03;5.90;;;3.23;;
8159;SDS011;27404;52.398;9.646;2023-04-24T09:41:55;5.97;;;3.77;;
8159;SDS011;27404;52.398;9.646;2023-04-24T09:44:24;4.80;;;3.63;;
8159;SDS011;27404;52.398;9.646;2023-04-24T09:46:53;5.20;;;3.67;;
8159;SDS011;27404;52.398;9.646;2023-04-24T09:49:22;3.70;;;3.20;;
8159;SDS011;27404;52.398;9.646;2023-04-24T09:51:51;4.43;;;3.30;;
8159;SDS011;27404;52.398;9.646;2023-04-24T09:54:17;5.67;;;3.63;;
8159;SDS011;27404;52.398;9.646;2023-04-24T09:56:46;3.77;;;3.40;;
8159;SDS011;27404;52.398;9.646;2023-04-24T09:59:19;3.73;;;2.83;;
8159;SDS011;27404;52.398;9.646;2023-04-24T10:01:44;4.30;;;3.47;;
8159;SDS011;27404;52.398;9.646;2023-04-24T10:06:46;4.53;;;3.40;;
8159;SDS011;27404;52.398;9.646;2023-04-24T10:09:14;4.00;;;3.20;;
8159;SDS011;27404;52.398;9.646;2023-04-24T10:11:44;6.80;;;3.77;;
8159;SDS011;27404;52.398;9.646;2023-04-24T10:14:12;3.13;;;2.73;;
8159;SDS011;27404;52.398;9.646;2023-04-24T10:16:39;5.57;;;3.40;;
8159;SDS011;27404;52.398;9.646;2023-04-24T10:19:06;4.77;;;3.93;;
8159;SDS011;27404;52.398;9.646;2023-04-24T10:21:32;5.73;;;3.70;;
8159;SDS011;27404;52.398;9.646;2023-04-24T10:23:58;4.10;;;3.13;;
8159;SDS011;27404;52.398;9.646;2023-04-24T10:26:25;3.80;;;3.17;;
8159;SDS011;27404;52.398;9.646;2023-04-24T10:28:52;4.03;;;3.30;;
8159;SDS011;27404;52.398;9.646;2023-04-24T10:31:21;3.80;;;2.93;;
8159;SDS011;27404;52.398;9.646;2023-04-24T10:33:47;3.97;;;3.33;;
8159;SDS011;27404;52.398;9.646;2023-04-24T10:36:16;3.60;;;3.00;;
8159;SDS011;27404;52.398;9.646;2023-04-24T10:38:43;3.80;;;2.47;;
8159;SDS011;27404;52.398;9.646;2023-04-24T10:41:11;3.00;;;2.70;;
8159;SDS011;27404;52.398;9.646;2023-04-24T10:43:44;2.83;;;2.43;;
8159;SDS011;27404;52.398;9.646;2023-04-24T10:46:10;2.07;;;1.83;;
8159;SDS011;27404;52.398;9.646;2023-04-24T10:48:44;2.67;;;1.83;;
8159;SDS011;27404;52.398;9.646;2023-04-24T10:51:22;2.83;;;1.80;;
8159;SDS011;27404;52.398;9.646;2023-04-24T10:53:49;3.83;;;1.90;;
8159;SDS011;27404;52.398;9.646;2023-04-24T10:56:16;3.10;;;1.87;;
8159;SDS011;27404;52.398;9.646;2023-04-24T10:58:43;1.80;;;1.50;;
8159;SDS011;27404;52.398;9.646;2023-04-24T11:01:28;2.57;;;1.43;;
8159;SDS011;27404;52.398;9.646;2023-04-24T11:03:56;1.90;;;1.40;;
8159;SDS011;27404;52.398;9.646;2023-04-24T11:06:32;2.53;;;1.73;;
8159;SDS011;27404;52.398;9.646;2023-04-24T11:09:08;2.20;;;1.53;;
8159;SDS011;27404;52.398;9.646;2023-04-24T11:11:35;1.90;;;1.70;;
8159;SDS011;27404;52.398;9.646;2023-04-24T11:14:03;3.03;;;1.87;;
8159;SDS011;27404;52.398;9.646;2023-04-24T11:21:42;2.80;;;1.87;;
8159;SDS011;27404;52.398;9.646;2023-04-24T11:24:24;4.13;;;2.33;;
8159;SDS011;27404;52.398;9.646;2023-04-24T11:27:01;2.97;;;2.10;;
8159;SDS011;27404;52.398;9.646;2023-04-24T11:29:39;2.80;;;2.13;;
8159;SDS011;27404;52.398;9.646;2023-04-24T11:32:18;2.87;;;1.77;;
8159;SDS011;27404;52.398;9.646;2023-04-24T11:35:26;2.40;;;1.70;;
8159;SDS011;27404;52.398;9.646;2023-04-24T11:37:35;2.93;;;1.57;;
8159;SDS011;27404;52.398;9.646;2023-04-24T11:40:02;3.27;;;1.43;;
8159;SDS011;27404;52.398;9.646;2023-04-24T11:42:33;1.67;;;1.47;;
8159;SDS011;27404;52.398;9.646;2023-04-24T11:45:06;1.40;;;1.03;;
8159;SDS011;27404;52.398;9.646;2023-04-24T11:47:36;1.70;;;1.30;;
8159;SDS011;27404;52.398;9.646;2023-04-24T11:50:02;2.37;;;1.20;;
8159;SDS011;27404;52.398;9.646;2023-04-24T11:52:30;1.30;;;1.07;;
8159;SDS011;27404;52.398;9.646;2023-04-24T11:54:56;1.20;;;1.10;;
8159;SDS011;27404;52.398;9.646;2023-04-24T11:57:22;1.37;;;1.10;;
8159;SDS011;27404;52.398;9.646;2023-04-24T11:59:51;1.00;;;0.80;;
8159;SDS011;27404;52.398;9.646;2023-04-24T12:02:23;2.43;;;0.90;;
8159;SDS011;27404;52.398;9.646;2023-04-24T12:04:49;1.33;;;1.10;;
8159;SDS011;27404;52.398;9.646;2023-04-24T12:07:15;1.83;;;1.30;;
8159;SDS011;27404;52.398;9.646;2023-04-24T12:09:44;3.73;;;1.10;;
8159;SDS011;27404;52.398;9.646;2023-04-24T12:12:13;1.40;;;1.30;;
8159;SDS011;27404;52.398;9.646;2023-04-24T12:14:50;3.20;;;1.60;;
8159;SDS011;27404;52.398;9.646;2023-04-24T12:17:23;1.50;;;1.40;;
8159;SDS011;27404;52.398;9.646;2023-04-24T12:19:56;1.50;;;1.33;;
8159;SDS011;27404;52.398;9.646;2023-04-24T12:22:26;3.30;;;1.40;;
8159;SDS011;27404;52.398;9.646;2023-04-24T12:24:55;1.50;;;1.10;;
8159;SDS011;27404;52.398;9.646;2023-04-24T12:27:22;2.27;;;1.60;;
8159;SDS011;27404;52.398;9.646;2023-04-24T12:29:57;1.50;;;1.10;;
8159;SDS011;27404;52.398;9.646;2023-04-24T12:32:24;2.00;;;1.20;;
8159;SDS011;27404;52.398;9.646;2023-04-24T12:34:51;1.50;;;1.13;;
8159;SDS011;27404;52.398;9.646;2023-04-24T12:37:20;2.07;;;1.50;;
8159;SDS011;27404;52.398;9.646;2023-04-24T12:40:00;2.10;;;1.70;;
8159;SDS011;27404;52.398;9.646;2023-04-24T12:42:33;1.80;;;1.50;;
8159;SDS011;27404;52.398;9.646;2023-04-24T12:45:01;1.97;;;1.70;;
8159;SDS011;27404;52.398;9.646;2023-04-24T12:47:31;1.60;;;1.30;;
8159;SDS011;27404;52.398;9.646;2023-04-24T12:49:57;1.43;;;1.17;;
8159;SDS011;27404;52.398;9.646;2023-04-24T12:52:23;1.60;;;1.40;;
8159;SDS011;27404;52.398;9.646;2023-04-24T12:54:49;3.60;;;1.27;;
8159;SDS011;27404;52.398;9.646;2023-04-24T12:57:16;1.60;;;1.40;;
8159;SDS011;27404;52.398;9.646;2023-04-24T12:59:43;1.77;;;1.37;;
8159;SDS011;27404;52.398;9.646;2023-04-24T13:02:09;1.53;;;1.40;;
8159;SDS011;27404;52.398;9.646;2023-04-24T13:04:35;2.53;;;1.40;;
8159;SDS011;27404;52.398;9.646;2023-04-24T13:07:00;2.67;;;1.30;;
8159;SDS011;27404;52.398;9.646;2023-04-24T13:09:26;2.30;;;1.60;;
8159;SDS011;27404;52.398;9.646;2023-04-24T13:11:52;3.80;;;1.70;;
8159;SDS011;27404;52.398;9.646;2023-04-24T13:14:17;2.33;;;1.80;;
8159;SDS011;27404;52.398;9.646;2023-04-24T13:16:42;2.67;;;1.87;;
8159;SDS011;27404;52.398;9.646;2023-04-24T13:19:08;2.37;;;1.80;;
8159;SDS011;27404;52.398;9.646;2023-04-24T13:21:33;1.90;;;1.70;;
8159;SDS011;27404;52.398;9.646;2023-04-24T13:23:59;4.20;;;1.90;;
8159;SDS011;27404;52.398;9.646;2023-04-24T13:26:25;2.20;;;1.90;;
8159;SDS011;27404;52.398;9.646;2023-04-24T13:28:50;2.20;;;1.77;;
8159;SDS011;27404;52.398;9.646;2023-04-24T13:31:15;1.60;;;1.40;;
8159;SDS011;27404;52.398;9.646;2023-04-24T13:33:41;2.23;;;1.30;;
8159;SDS011;27404;52.398;9.646;2023-04-24T13:36:07;2.70;;;1.63;;
8159;SDS011;27404;52.398;9.646;2023-04-24T13:38:33;1.47;;;1.37;;
8159;SDS011;27404;52.398;9.646;2023-04-24T13:40:58;1.27;;;1.00;;
8159;SDS011;27404;52.398;9.646;2023-04-24T13:43:24;2.57;;;1.07;;
8159;SDS011;27404;52.398;9.646;2023-04-24T13:45:49;1.90;;;1.23;;
8159;SDS011;27404;52.398;9.646;2023-04-24T13:48:15;1.30;;;1.00;;
8159;SDS011;27404;52.398;9.646;2023-04-24T13:50:41;1.60;;;1.03;;
8159;SDS011;27404;52.398;9.646;2023-04-24T13:53:07;2.30;;;0.80;;
8159;SDS011;27404;52.398;9.646;2023-04-24T13:55:33;1.23;;;0.80;;
8159;SDS011;27404;52.398;9.646;2023-04-24T13:57:59;0.87;;;0.60;;
8159;SDS011;27404;52.398;9.646;2023-04-24T14:00:24;1.27;;;0.50;;
8159;SDS011;27404;52.398;9.646;2023-04-24T14:02:50;3.50;;;0.70;;
8159;SDS011;27404;52.398;9.646;2023-04-24T14:05:16;0.93;;;0.80;;
8159;SDS011;27404;52.398;9.646;2023-04-24T14:07:41;1.77;;;0.90;;
8159;SDS011;27404;52.398;9.646;2023-04-24T14:10:07;1.47;;;0.93;;
8159;SDS011;27404;52.398;9.646;2023-04-24T14:12:33;2.03;;;0.83;;
8159;SDS011;27404;52.398;9.646;2023-04-24T14:14:59;3.27;;;1.03;;
8159;SDS011;27404;52.398;9.646;2023-04-24T14:17:26;1.20;;;0.90;;
8159;SDS011;27404;52.398;9.646;2023-04-24T14:19:51;1.67;;;1.33;;
8159;SDS011;27404;52.398;9.646;2023-04-24T14:22:20;2.07;;;1.40;;
8159;SDS011;27404;52.398;9.646;2023-04-24T14:24:46;3.83;;;1.70;;
8159;SDS011;27404;52.398;9.646;2023-04-24T14:27:11;2.80;;;1.60;;
8159;SDS011;27404;52.398;9.646;2023-04-24T14:29:36;2.67;;;2.30;;
8159;SDS011;27404;52.398;9.646;2023-04-24T14:32:02;5.57;;;2.53;;
8159;SDS011;27404;52.398;9.646;2023-04-24T14:34:27;3.70;;;2.20;;
8159;SDS011;27404;52.398;9.646;2023-04-24T14:36:53;5.13;;;1.87;;
8159;SDS011;27404;52.398;9.646;2023-04-24T14:39:19;2.63;;;1.83;;
8159;SDS011;27404;52.398;9.646;2023-04-24T14:41:45;4.57;;;2.20;;
8159;SDS011;27404;52.398;9.646;2023-04-24T14:44:10;4.13;;;2.13;;
8159;SDS011;27404;52.398;9.646;2023-04-24T14:46:36;3.60;;;2.13;;
8159;SDS011;27404;52.398;9.646;2023-04-24T14:49:01;5.37;;;2.30;;
8159;SDS011;27404;52.398;9.646;2023-04-24T14:51:27;6.63;;;2.97;;
8159;SDS011;27404;52.398;9.646;2023-04-24T14:53:52;7.10;;;2.17;;
8159;SDS011;27404;52.398;9.646;2023-04-24T14:56:18;7.40;;;2.80;;
8159;SDS011;27404;52.398;9.646;2023-04-24T14:58:43;5.90;;;2.67;;
8159;SDS011;27404;52.398;9.646;2023-04-24T15:01:09;6.17;;;2.90;;
8159;SDS011;27404;52.398;9.646;2023-04-24T15:03:35;6.63;;;2.70;;
8159;SDS011;27404;52.398;9.646;2023-04-24T15:06:01;4.77;;;2.60;;